sensor_id;sensor_type;location;lat;lon;timestamp;temperature;humidity
69162;DHT22;56269;51.738;21.652;2022-07-06T00:02:19;15.72;99.99
69162;DHT22;56269;51.738;21.652;2022-07-06T00:04:45;15.69;99.99
69162;DHT22;56269;51.738;21.652;2022-07-06T00:07:11;15.65;99.99
69162;DHT22;56269;51.738;21.652;2022-07-06T00:09:37;15.61;99.99
69162;DHT22;56269;51.738;21.652;2022-07-06T00:12:03;15.57;99.99
69162;DHT22;56269;51.738;21.652;2022-07-06T00:14:29;15.57;99.99
69162;DHT22;56269;51.738;21.652;2022-07-06T00:16:55;15.54;99.99
69162;DHT22;56269;51.738;21.652;2022-07-06T00:19:21;15.52;99.99
69162;DHT22;56269;51.738;21.652;2022-07-06T00:21:47;15.47;99.99
69162;DHT22;56269;51.738;21.652;2022-07-06T00:24:13;15.45;99.99
69162;DHT22;56269;51.738;21.652;2022-07-06T00:26:39;15.44;99.99
69162;DHT22;56269;51.738;21.652;2022-07-06T00:29:05;15.38;99.99
69162;DHT22;56269;51.738;21.652;2022-07-06T00:31:31;15.35;99.99
69162;DHT22;56269;51.738;21.652;2022-07-06T00:33:57;15.34;99.99
69162;DHT22;56269;51.738;21.652;2022-07-06T00:36:23;15.31;99.99
69162;DHT22;56269;51.738;21.652;2022-07-06T00:38:49;15.27;99.99
69162;DHT22;56269;51.738;21.652;2022-07-06T00:41:15;15.23;99.99
69162;DHT22;56269;51.738;21.652;2022-07-06T00:43:49;15.26;99.99
69162;DHT22;56269;51.738;21.652;2022-07-06T00:46:15;15.21;99.99
69162;DHT22;56269;51.738;21.652;2022-07-06T00:48:41;15.23;99.99
69162;DHT22;56269;51.738;21.652;2022-07-06T00:51:07;15.21;99.99
69162;DHT22;56269;51.738;21.652;2022-07-06T00:53:34;15.17;99.99
69162;DHT22;56269;51.738;21.652;2022-07-06T00:56:00;15.17;99.99
69162;DHT22;56269;51.738;21.652;2022-07-06T00:58:27;15.19;99.99
69162;DHT22;56269;51.738;21.652;2022-07-06T01:00:53;15.16;99.99
69162;DHT22;56269;51.738;21.652;2022-07-06T01:03:19;15.12;99.99
69162;DHT22;56269;51.738;21.652;2022-07-06T01:05:45;15.14;99.99
69162;DHT22;56269;51.738;21.652;2022-07-06T01:08:12;15.11;99.99
69162;DHT22;56269;51.738;21.652;2022-07-06T01:10:38;15.12;99.99
69162;DHT22;56269;51.738;21.652;2022-07-06T01:13:04;15.12;99.99
69162;DHT22;56269;51.738;21.652;2022-07-06T01:15:30;15.12;99.99
69162;DHT22;56269;51.738;21.652;2022-07-06T01:17:56;15.14;99.99
69162;DHT22;56269;51.738;21.652;2022-07-06T01:20:25;15.16;99.99
69162;DHT22;56269;51.738;21.652;2022-07-06T01:22:53;15.14;99.99
69162;DHT22;56269;51.738;21.652;2022-07-06T01:25:20;15.14;99.99
69162;DHT22;56269;51.738;21.652;2022-07-06T01:27:47;15.16;99.99
69162;DHT22;56269;51.738;21.652;2022-07-06T01:30:15;15.19;99.99
69162;DHT22;56269;51.738;21.652;2022-07-06T01:32:42;15.16;99.99
69162;DHT22;56269;51.738;21.652;2022-07-06T01:35:12;15.17;99.99
69162;DHT22;56269;51.738;21.652;2022-07-06T01:37:39;15.17;99.99
69162;DHT22;56269;51.738;21.652;2022-07-06T01:40:08;15.17;99.99
69162;DHT22;56269;51.738;21.652;2022-07-06T01:42:35;15.17;99.99
69162;DHT22;56269;51.738;21.652;2022-07-06T01:45:02;15.16;99.99
69162;DHT22;56269;51.738;21.652;2022-07-06T01:47:28;15.16;99.99
69162;DHT22;56269;51.738;21.652;2022-07-06T01:49:54;15.16;99.99
69162;DHT22;56269;51.738;21.652;2022-07-06T01:52:23;15.14;99.99
69162;DHT22;56269;51.738;21.652;2022-07-06T01:54:49;15.14;99.99
69162;DHT22;56269;51.738;21.652;2022-07-06T01:57:15;15.14;99.99
69162;DHT22;56269;51.738;21.652;2022-07-06T01:59:41;15.11;99.99
69162;DHT22;56269;51.738;21.652;2022-07-06T02:02:07;15.08;99.99
69162;DHT22;56269;51.738;21.652;2022-07-06T02:04:33;15.07;99.99
69162;DHT22;56269;51.738;21.652;2022-07-06T02:06:59;15.07;99.99
69162;DHT22;56269;51.738;21.652;2022-07-06T02:09:25;15.01;99.99
69162;DHT22;56269;51.738;21.652;2022-07-06T02:11:51;15.01;99.99
69162;DHT22;56269;51.738;21.652;2022-07-06T02:14:17;14.99;99.99
69162;DHT22;56269;51.738;21.652;2022-07-06T02:16:43;14.94;99.99
69162;DHT22;56269;51.738;21.652;2022-07-06T02:19:09;14.96;99.99
69162;DHT22;56269;51.738;21.652;2022-07-06T02:21:35;14.93;99.99
69162;DHT22;56269;51.738;21.652;2022-07-06T02:24:01;14.94;99.99
69162;DHT22;56269;51.738;21.652;2022-07-06T02:26:27;14.94;99.99
69162;DHT22;56269;51.738;21.652;2022-07-06T02:28:53;14.96;99.99
69162;DHT22;56269;51.738;21.652;2022-07-06T02:31:19;14.97;99.99
69162;DHT22;56269;51.738;21.652;2022-07-06T02:33:45;14.96;99.99
69162;DHT22;56269;51.738;21.652;2022-07-06T02:36:11;14.96;99.99
69162;DHT22;56269;51.738;21.652;2022-07-06T02:38:37;14.97;99.99
69162;DHT22;56269;51.738;21.652;2022-07-06T02:41:03;15.00;99.99
69162;DHT22;56269;51.738;21.652;2022-07-06T02:43:29;15.01;99.99
69162;DHT22;56269;51.738;21.652;2022-07-06T02:45:55;14.99;99.99
69162;DHT22;56269;51.738;21.652;2022-07-06T02:48:21;14.99;99.99
69162;DHT22;56269;51.738;21.652;2022-07-06T02:50:47;14.94;99.99
69162;DHT22;56269;51.738;21.652;2022-07-06T02:53:13;14.96;99.99
69162;DHT22;56269;51.738;21.652;2022-07-06T02:55:39;14.94;99.99
69162;DHT22;56269;51.738;21.652;2022-07-06T02:58:06;14.96;99.99
69162;DHT22;56269;51.738;21.652;2022-07-06T03:00:32;14.96;99.99
69162;DHT22;56269;51.738;21.652;2022-07-06T03:02:58;14.94;99.99
69162;DHT22;56269;51.738;21.652;2022-07-06T03:05:24;14.91;99.99
69162;DHT22;56269;51.738;21.652;2022-07-06T03:07:50;14.93;99.99
69162;DHT22;56269;51.738;21.652;2022-07-06T03:10:16;14.94;99.99
69162;DHT22;56269;51.738;21.652;2022-07-06T03:12:42;14.90;99.99
69162;DHT22;56269;51.738;21.652;2022-07-06T03:15:08;14.90;99.99
69162;DHT22;56269;51.738;21.652;2022-07-06T03:17:36;14.93;99.99
69162;DHT22;56269;51.738;21.652;2022-07-06T03:20:04;14.90;99.99
69162;DHT22;56269;51.738;21.652;2022-07-06T03:22:30;14.91;99.99
69162;DHT22;56269;51.738;21.652;2022-07-06T03:24:57;14.90;99.99
69162;DHT22;56269;51.738;21.652;2022-07-06T03:27:23;14.96;99.99
69162;DHT22;56269;51.738;21.652;2022-07-06T03:29:49;14.87;99.99
69162;DHT22;56269;51.738;21.652;2022-07-06T03:32:15;14.81;99.99
69162;DHT22;56269;51.738;21.652;2022-07-06T03:34:41;14.79;99.99
69162;DHT22;56269;51.738;21.652;2022-07-06T03:37:07;14.76;99.99
69162;DHT22;56269;51.738;21.652;2022-07-06T03:39:33;14.70;99.99
69162;DHT22;56269;51.738;21.652;2022-07-06T03:41:59;14.66;99.99
69162;DHT22;56269;51.738;21.652;2022-07-06T03:44:25;14.58;99.99
69162;DHT22;56269;51.738;21.652;2022-07-06T03:46:51;14.59;99.99
69162;DHT22;56269;51.738;21.652;2022-07-06T03:49:21;14.50;99.99
69162;DHT22;56269;51.738;21.652;2022-07-06T03:51:47;14.45;99.99
69162;DHT22;56269;51.738;21.652;2022-07-06T03:54:13;14.36;99.99
69162;DHT22;56269;51.738;21.652;2022-07-06T03:56:39;14.32;99.99
69162;DHT22;56269;51.738;21.652;2022-07-06T03:59:05;14.26;99.99
69162;DHT22;56269;51.738;21.652;2022-07-06T04:01:31;14.24;99.99
69162;DHT22;56269;51.738;21.652;2022-07-06T04:03:58;14.19;99.99
69162;DHT22;56269;51.738;21.652;2022-07-06T04:06:23;14.12;99.99
69162;DHT22;56269;51.738;21.652;2022-07-06T04:08:49;14.11;99.99
69162;DHT22;56269;51.738;21.652;2022-07-06T04:11:16;14.05;99.99
69162;DHT22;56269;51.738;21.652;2022-07-06T04:13:42;14.05;99.99
69162;DHT22;56269;51.738;21.652;2022-07-06T04:16:08;14.01;99.99
69162;DHT22;56269;51.738;21.652;2022-07-06T04:18:34;14.04;99.99
69162;DHT22;56269;51.738;21.652;2022-07-06T04:21:00;14.05;99.99
69162;DHT22;56269;51.738;21.652;2022-07-06T04:23:26;14.05;99.99
69162;DHT22;56269;51.738;21.652;2022-07-06T04:25:52;14.05;99.99
69162;DHT22;56269;51.738;21.652;2022-07-06T04:28:18;14.09;99.99
69162;DHT22;56269;51.738;21.652;2022-07-06T04:30:44;14.08;99.99
69162;DHT22;56269;51.738;21.652;2022-07-06T04:33:10;14.14;99.99
69162;DHT22;56269;51.738;21.652;2022-07-06T04:35:36;14.08;99.99
69162;DHT22;56269;51.738;21.652;2022-07-06T04:38:02;14.11;99.99
69162;DHT22;56269;51.738;21.652;2022-07-06T04:40:28;14.12;99.99
69162;DHT22;56269;51.738;21.652;2022-07-06T04:42:54;14.17;99.99
69162;DHT22;56269;51.738;21.652;2022-07-06T04:45:20;14.15;99.99
69162;DHT22;56269;51.738;21.652;2022-07-06T04:47:46;14.18;99.99
69162;DHT22;56269;51.738;21.652;2022-07-06T04:50:12;14.24;99.99
69162;DHT22;56269;51.738;21.652;2022-07-06T04:52:38;14.28;99.99
69162;DHT22;56269;51.738;21.652;2022-07-06T04:55:05;14.30;99.99
69162;DHT22;56269;51.738;21.652;2022-07-06T04:57:32;14.33;99.99
69162;DHT22;56269;51.738;21.652;2022-07-06T04:59:58;14.33;99.99
69162;DHT22;56269;51.738;21.652;2022-07-06T05:02:24;14.35;99.99
69162;DHT22;56269;51.738;21.652;2022-07-06T05:04:50;14.35;99.99
69162;DHT22;56269;51.738;21.652;2022-07-06T05:07:16;14.39;99.99
69162;DHT22;56269;51.738;21.652;2022-07-06T05:09:43;14.39;99.99
69162;DHT22;56269;51.738;21.652;2022-07-06T05:12:09;14.42;99.99
69162;DHT22;56269;51.738;21.652;2022-07-06T05:14:35;14.40;99.99
69162;DHT22;56269;51.738;21.652;2022-07-06T05:17:02;14.56;99.99
69162;DHT22;56269;51.738;21.652;2022-07-06T05:19:28;14.50;99.99
69162;DHT22;56269;51.738;21.652;2022-07-06T05:21:54;14.53;99.99
69162;DHT22;56269;51.738;21.652;2022-07-06T05:24:21;14.53;99.99
69162;DHT22;56269;51.738;21.652;2022-07-06T05:26:47;14.55;99.99
69162;DHT22;56269;51.738;21.652;2022-07-06T05:29:13;14.55;99.99
69162;DHT22;56269;51.738;21.652;2022-07-06T05:31:39;14.58;99.99
69162;DHT22;56269;51.738;21.652;2022-07-06T05:34:05;14.55;99.99
69162;DHT22;56269;51.738;21.652;2022-07-06T05:36:31;14.53;99.99
69162;DHT22;56269;51.738;21.652;2022-07-06T05:38:57;14.55;99.99
69162;DHT22;56269;51.738;21.652;2022-07-06T05:41:23;14.48;99.99
69162;DHT22;56269;51.738;21.652;2022-07-06T05:43:49;14.60;99.99
69162;DHT22;56269;51.738;21.652;2022-07-06T05:46:15;14.59;99.99
69162;DHT22;56269;51.738;21.652;2022-07-06T05:48:41;14.63;99.99
69162;DHT22;56269;51.738;21.652;2022-07-06T05:51:25;14.65;99.99
69162;DHT22;56269;51.738;21.652;2022-07-06T05:53:51;14.81;99.99
69162;DHT22;56269;51.738;21.652;2022-07-06T05:56:17;14.79;99.99
69162;DHT22;56269;51.738;21.652;2022-07-06T05:58:44;14.84;99.99
69162;DHT22;56269;51.738;21.652;2022-07-06T06:01:10;14.91;99.99
69162;DHT22;56269;51.738;21.652;2022-07-06T06:03:36;15.06;99.99
69162;DHT22;56269;51.738;21.652;2022-07-06T06:06:02;15.07;99.54
69162;DHT22;56269;51.738;21.652;2022-07-06T06:08:28;15.14;99.35
69162;DHT22;56269;51.738;21.652;2022-07-06T06:10:54;15.27;98.61
69162;DHT22;56269;51.738;21.652;2022-07-06T06:13:20;15.24;97.88
69162;DHT22;56269;51.738;21.652;2022-07-06T06:15:46;15.26;98.62
69162;DHT22;56269;51.738;21.652;2022-07-06T06:18:12;15.27;98.02
69162;DHT22;56269;51.738;21.652;2022-07-06T06:20:38;15.20;97.97
69162;DHT22;56269;51.738;21.652;2022-07-06T06:23:04;15.23;98.49
69162;DHT22;56269;51.738;21.652;2022-07-06T06:27:58;15.14;97.58
69162;DHT22;56269;51.738;21.652;2022-07-06T06:30:25;15.26;97.92
69162;DHT22;56269;51.738;21.652;2022-07-06T06:32:52;15.28;97.47
69162;DHT22;56269;51.738;21.652;2022-07-06T06:35:18;15.23;97.55
69162;DHT22;56269;51.738;21.652;2022-07-06T06:37:44;15.50;98.04
69162;DHT22;56269;51.738;21.652;2022-07-06T06:40:10;15.61;97.02
69162;DHT22;56269;51.738;21.652;2022-07-06T06:42:37;15.81;95.50
69162;DHT22;56269;51.738;21.652;2022-07-06T06:45:04;16.57;96.61
69162;DHT22;56269;51.738;21.652;2022-07-06T06:47:30;16.44;93.20
69162;DHT22;56269;51.738;21.652;2022-07-06T06:49:57;16.84;93.08
69162;DHT22;56269;51.738;21.652;2022-07-06T06:52:22;16.89;91.30
69162;DHT22;56269;51.738;21.652;2022-07-06T06:54:49;17.04;92.99
69162;DHT22;56269;51.738;21.652;2022-07-06T06:57:15;17.26;89.37
69162;DHT22;56269;51.738;21.652;2022-07-06T06:59:41;17.56;88.28
69162;DHT22;56269;51.738;21.652;2022-07-06T07:02:07;17.11;89.36
69162;DHT22;56269;51.738;21.652;2022-07-06T07:04:33;18.14;90.84
69162;DHT22;56269;51.738;21.652;2022-07-06T07:06:59;18.13;86.89
69162;DHT22;56269;51.738;21.652;2022-07-06T07:09:25;17.36;89.73
69162;DHT22;56269;51.738;21.652;2022-07-06T07:11:51;17.19;89.34
69162;DHT22;56269;51.738;21.652;2022-07-06T07:14:18;17.10;88.63
69162;DHT22;56269;51.738;21.652;2022-07-06T07:16:43;16.77;90.16
69162;DHT22;56269;51.738;21.652;2022-07-06T07:19:10;16.89;91.66
69162;DHT22;56269;51.738;21.652;2022-07-06T07:21:36;16.85;91.80
69162;DHT22;56269;51.738;21.652;2022-07-06T07:24:02;17.14;93.37
69162;DHT22;56269;51.738;21.652;2022-07-06T07:26:28;17.25;89.84
69162;DHT22;56269;51.738;21.652;2022-07-06T07:28:54;17.22;89.46
69162;DHT22;56269;51.738;21.652;2022-07-06T07:31:20;17.14;90.24
69162;DHT22;56269;51.738;21.652;2022-07-06T07:33:47;17.02;90.76
69162;DHT22;56269;51.738;21.652;2022-07-06T07:36:13;17.18;90.10
69162;DHT22;56269;51.738;21.652;2022-07-06T07:38:39;17.25;89.90
69162;DHT22;56269;51.738;21.652;2022-07-06T07:41:05;17.29;88.70
69162;DHT22;56269;51.738;21.652;2022-07-06T07:43:31;17.50;88.04
69162;DHT22;56269;51.738;21.652;2022-07-06T07:45:57;17.66;88.31
69162;DHT22;56269;51.738;21.652;2022-07-06T07:48:23;17.97;90.17
69162;DHT22;56269;51.738;21.652;2022-07-06T07:50:49;17.59;87.20
69162;DHT22;56269;51.738;21.652;2022-07-06T07:53:16;18.06;87.23
69162;DHT22;56269;51.738;21.652;2022-07-06T07:55:42;18.64;86.06
69162;DHT22;56269;51.738;21.652;2022-07-06T07:58:08;19.10;84.19
69162;DHT22;56269;51.738;21.652;2022-07-06T08:00:34;19.13;84.73
69162;DHT22;56269;51.738;21.652;2022-07-06T08:03:00;19.12;84.95
69162;DHT22;56269;51.738;21.652;2022-07-06T08:05:26;18.85;86.20
69162;DHT22;56269;51.738;21.652;2022-07-06T08:07:52;19.24;82.34
69162;DHT22;56269;51.738;21.652;2022-07-06T08:10:19;18.34;84.03
69162;DHT22;56269;51.738;21.652;2022-07-06T08:12:45;17.82;85.87
69162;DHT22;56269;51.738;21.652;2022-07-06T08:15:11;17.32;85.09
69162;DHT22;56269;51.738;21.652;2022-07-06T08:17:38;17.07;87.64
69162;DHT22;56269;51.738;21.652;2022-07-06T08:20:06;17.07;88.63
69162;DHT22;56269;51.738;21.652;2022-07-06T08:22:33;17.11;89.31
69162;DHT22;56269;51.738;21.652;2022-07-06T08:25:00;16.94;87.24
69162;DHT22;56269;51.738;21.652;2022-07-06T08:27:26;16.78;88.69
69162;DHT22;56269;51.738;21.652;2022-07-06T08:29:52;16.71;89.79
69162;DHT22;56269;51.738;21.652;2022-07-06T08:32:19;16.91;88.66
69162;DHT22;56269;51.738;21.652;2022-07-06T08:34:46;16.91;90.37
69162;DHT22;56269;51.738;21.652;2022-07-06T08:37:12;17.31;90.00
69162;DHT22;56269;51.738;21.652;2022-07-06T08:39:38;18.11;87.47
69162;DHT22;56269;51.738;21.652;2022-07-06T08:42:05;18.21;87.90
69162;DHT22;56269;51.738;21.652;2022-07-06T08:44:32;18.65;87.14
69162;DHT22;56269;51.738;21.652;2022-07-06T08:47:06;18.89;85.88
69162;DHT22;56269;51.738;21.652;2022-07-06T08:49:34;19.09;82.07
69162;DHT22;56269;51.738;21.652;2022-07-06T08:52:03;20.08;83.40
69162;DHT22;56269;51.738;21.652;2022-07-06T08:54:29;19.45;79.93
69162;DHT22;56269;51.738;21.652;2022-07-06T08:56:55;19.80;80.25
69162;DHT22;56269;51.738;21.652;2022-07-06T08:59:22;20.21;77.78
69162;DHT22;56269;51.738;21.652;2022-07-06T09:01:48;20.59;78.62
69162;DHT22;56269;51.738;21.652;2022-07-06T09:04:18;20.25;76.87
69162;DHT22;56269;51.738;21.652;2022-07-06T09:06:46;21.11;74.89
69162;DHT22;56269;51.738;21.652;2022-07-06T09:09:21;20.89;78.27
69162;DHT22;56269;51.738;21.652;2022-07-06T09:11:49;20.11;78.26
69162;DHT22;56269;51.738;21.652;2022-07-06T09:14:15;20.19;80.80
69162;DHT22;56269;51.738;21.652;2022-07-06T09:16:42;21.11;77.46
69162;DHT22;56269;51.738;21.652;2022-07-06T09:19:11;21.89;73.03
69162;DHT22;56269;51.738;21.652;2022-07-06T09:21:37;21.57;73.01
69162;DHT22;56269;51.738;21.652;2022-07-06T09:24:08;22.78;70.67
69162;DHT22;56269;51.738;21.652;2022-07-06T09:26:35;21.37;73.01
69162;DHT22;56269;51.738;21.652;2022-07-06T09:29:02;21.79;72.16
69162;DHT22;56269;51.738;21.652;2022-07-06T09:31:28;21.28;72.06
69162;DHT22;56269;51.738;21.652;2022-07-06T09:33:58;20.84;75.34
69162;DHT22;56269;51.738;21.652;2022-07-06T09:36:46;21.28;71.42
69162;DHT22;56269;51.738;21.652;2022-07-06T09:39:32;20.82;76.54
69162;DHT22;56269;51.738;21.652;2022-07-06T09:41:59;20.80;72.91
69162;DHT22;56269;51.738;21.652;2022-07-06T09:44:37;20.69;72.31
69162;DHT22;56269;51.738;21.652;2022-07-06T09:47:08;21.61;71.62
69162;DHT22;56269;51.738;21.652;2022-07-06T09:49:38;21.62;73.33
69162;DHT22;56269;51.738;21.652;2022-07-06T09:52:08;20.92;75.14
69162;DHT22;56269;51.738;21.652;2022-07-06T09:54:36;21.24;73.86
69162;DHT22;56269;51.738;21.652;2022-07-06T09:57:03;21.47;75.62
69162;DHT22;56269;51.738;21.652;2022-07-06T09:59:30;21.50;72.55
69162;DHT22;56269;51.738;21.652;2022-07-06T10:01:58;20.68;73.26
69162;DHT22;56269;51.738;21.652;2022-07-06T10:04:25;20.60;74.17
69162;DHT22;56269;51.738;21.652;2022-07-06T10:06:52;20.09;76.55
69162;DHT22;56269;51.738;21.652;2022-07-06T10:09:20;19.61;77.42
69162;DHT22;56269;51.738;21.652;2022-07-06T10:11:51;20.12;77.34
69162;DHT22;56269;51.738;21.652;2022-07-06T10:14:20;20.92;73.87
69162;DHT22;56269;51.738;21.652;2022-07-06T10:16:47;21.59;70.64
69162;DHT22;56269;51.738;21.652;2022-07-06T10:19:14;21.93;68.16
69162;DHT22;56269;51.738;21.652;2022-07-06T10:21:41;22.77;62.92
69162;DHT22;56269;51.738;21.652;2022-07-06T10:24:08;23.00;62.56
69162;DHT22;56269;51.738;21.652;2022-07-06T10:26:35;22.68;62.38
69162;DHT22;56269;51.738;21.652;2022-07-06T10:29:04;21.64;64.78
69162;DHT22;56269;51.738;21.652;2022-07-06T10:31:31;20.89;62.03
69162;DHT22;56269;51.738;21.652;2022-07-06T10:34:00;21.96;61.81
69162;DHT22;56269;51.738;21.652;2022-07-06T10:36:28;22.60;62.06
69162;DHT22;56269;51.738;21.652;2022-07-06T10:38:54;22.08;61.10
69162;DHT22;56269;51.738;21.652;2022-07-06T10:41:33;21.31;62.71
69162;DHT22;56269;51.738;21.652;2022-07-06T10:44:23;21.86;60.94
69162;DHT22;56269;51.738;21.652;2022-07-06T10:46:53;22.71;62.62
69162;DHT22;56269;51.738;21.652;2022-07-06T10:49:21;22.42;57.87
69162;DHT22;56269;51.738;21.652;2022-07-06T10:51:48;22.40;61.37
69162;DHT22;56269;51.738;21.652;2022-07-06T10:54:16;21.04;61.21
69162;DHT22;56269;51.738;21.652;2022-07-06T10:56:45;21.54;62.82
69162;DHT22;56269;51.738;21.652;2022-07-06T10:59:16;22.59;59.92
69162;DHT22;56269;51.738;21.652;2022-07-06T11:04:38;23.35;57.20
69162;DHT22;56269;51.738;21.652;2022-07-06T11:07:10;23.14;58.70
69162;DHT22;56269;51.738;21.652;2022-07-06T11:09:37;22.49;57.15
69162;DHT22;56269;51.738;21.652;2022-07-06T11:12:17;21.92;60.58
69162;DHT22;56269;51.738;21.652;2022-07-06T11:14:48;21.59;57.87
69162;DHT22;56269;51.738;21.652;2022-07-06T11:17:15;22.43;59.31
69162;DHT22;56269;51.738;21.652;2022-07-06T11:19:55;23.04;59.70
69162;DHT22;56269;51.738;21.652;2022-07-06T11:22:36;23.66;55.96
69162;DHT22;56269;51.738;21.652;2022-07-06T11:25:02;24.81;55.15
69162;DHT22;56269;51.738;21.652;2022-07-06T11:27:37;24.71;55.39
69162;DHT22;56269;51.738;21.652;2022-07-06T11:30:17;22.52;55.45
69162;DHT22;56269;51.738;21.652;2022-07-06T11:32:44;22.40;61.67
69162;DHT22;56269;51.738;21.652;2022-07-06T11:35:10;21.55;62.06
69162;DHT22;56269;51.738;21.652;2022-07-06T11:37:35;21.13;63.34
69162;DHT22;56269;51.738;21.652;2022-07-06T11:40:06;22.17;59.47
69162;DHT22;56269;51.738;21.652;2022-07-06T11:42:32;23.66;59.89
69162;DHT22;56269;51.738;21.652;2022-07-06T11:44:58;24.67;53.97
69162;DHT22;56269;51.738;21.652;2022-07-06T11:47:30;25.58;53.82
69162;DHT22;56269;51.738;21.652;2022-07-06T11:49:56;26.30;54.16
69162;DHT22;56269;51.738;21.652;2022-07-06T11:52:22;25.97;52.44
69162;DHT22;56269;51.738;21.652;2022-07-06T11:54:56;25.26;50.12
69162;DHT22;56269;51.738;21.652;2022-07-06T11:57:22;25.53;47.40
69162;DHT22;56269;51.738;21.652;2022-07-06T11:59:49;25.36;51.73
69162;DHT22;56269;51.738;21.652;2022-07-06T12:02:17;24.60;50.95
69162;DHT22;56269;51.738;21.652;2022-07-06T12:04:44;23.96;52.11
69162;DHT22;56269;51.738;21.652;2022-07-06T12:07:16;22.71;54.15
69162;DHT22;56269;51.738;21.652;2022-07-06T12:09:46;22.53;57.68
69162;DHT22;56269;51.738;21.652;2022-07-06T12:12:13;21.81;55.92
69162;DHT22;56269;51.738;21.652;2022-07-06T12:14:40;22.01;57.51
69162;DHT22;56269;51.738;21.652;2022-07-06T12:17:11;22.61;57.97
69162;DHT22;56269;51.738;21.652;2022-07-06T12:19:39;22.94;58.13
69162;DHT22;56269;51.738;21.652;2022-07-06T12:22:07;22.87;58.56
69162;DHT22;56269;51.738;21.652;2022-07-06T12:24:34;22.94;58.18
69162;DHT22;56269;51.738;21.652;2022-07-06T12:27:12;22.47;57.43
69162;DHT22;56269;51.738;21.652;2022-07-06T12:29:38;23.07;56.98
69162;DHT22;56269;51.738;21.652;2022-07-06T12:32:05;23.48;52.75
69162;DHT22;56269;51.738;21.652;2022-07-06T12:34:32;24.53;55.61
69162;DHT22;56269;51.738;21.652;2022-07-06T12:37:10;24.31;55.04
69162;DHT22;56269;51.738;21.652;2022-07-06T12:39:47;25.20;52.77
69162;DHT22;56269;51.738;21.652;2022-07-06T12:42:17;26.04;54.52
69162;DHT22;56269;51.738;21.652;2022-07-06T12:44:46;26.73;52.39
69162;DHT22;56269;51.738;21.652;2022-07-06T12:47:16;26.44;49.13
69162;DHT22;56269;51.738;21.652;2022-07-06T12:49:42;25.46;48.76
69162;DHT22;56269;51.738;21.652;2022-07-06T12:52:10;25.30;47.86
69162;DHT22;56269;51.738;21.652;2022-07-06T12:54:41;24.27;49.79
69162;DHT22;56269;51.738;21.652;2022-07-06T12:57:19;24.03;49.50
69162;DHT22;56269;51.738;21.652;2022-07-06T13:02:30;22.28;51.54
69162;DHT22;56269;51.738;21.652;2022-07-06T13:05:00;22.12;52.85
69162;DHT22;56269;51.738;21.652;2022-07-06T13:07:29;22.49;53.97
69162;DHT22;56269;51.738;21.652;2022-07-06T13:09:58;23.45;52.48
69162;DHT22;56269;51.738;21.652;2022-07-06T13:12:24;23.83;52.43
69162;DHT22;56269;51.738;21.652;2022-07-06T13:14:51;23.72;52.40
69162;DHT22;56269;51.738;21.652;2022-07-06T13:17:17;24.17;51.89
69162;DHT22;56269;51.738;21.652;2022-07-06T13:19:43;23.41;50.90
69162;DHT22;56269;51.738;21.652;2022-07-06T13:22:22;22.56;52.31
69162;DHT22;56269;51.738;21.652;2022-07-06T13:24:48;23.10;52.46
69162;DHT22;56269;51.738;21.652;2022-07-06T13:27:14;23.73;49.25
69162;DHT22;56269;51.738;21.652;2022-07-06T13:29:40;23.80;49.20
69162;DHT22;56269;51.738;21.652;2022-07-06T13:32:07;23.76;52.00
69162;DHT22;56269;51.738;21.652;2022-07-06T13:34:34;23.07;49.45
69162;DHT22;56269;51.738;21.652;2022-07-06T13:37:04;22.71;50.09
69162;DHT22;56269;51.738;21.652;2022-07-06T13:39:31;22.37;51.65
69162;DHT22;56269;51.738;21.652;2022-07-06T13:41:57;22.16;51.82
69162;DHT22;56269;51.738;21.652;2022-07-06T13:44:23;22.37;53.92
69162;DHT22;56269;51.738;21.652;2022-07-06T13:46:50;22.22;53.49
69162;DHT22;56269;51.738;21.652;2022-07-06T13:49:16;22.28;53.21
69162;DHT22;56269;51.738;21.652;2022-07-06T13:51:42;22.40;53.34
69162;DHT22;56269;51.738;21.652;2022-07-06T13:54:09;22.20;55.24
69162;DHT22;56269;51.738;21.652;2022-07-06T13:56:37;22.28;55.52
69162;DHT22;56269;51.738;21.652;2022-07-06T13:59:04;22.05;54.03
69162;DHT22;56269;51.738;21.652;2022-07-06T14:01:31;22.06;56.09
69162;DHT22;56269;51.738;21.652;2022-07-06T14:03:57;22.93;55.77
69162;DHT22;56269;51.738;21.652;2022-07-06T14:06:23;23.59;52.57
69162;DHT22;56269;51.738;21.652;2022-07-06T14:08:49;24.17;54.77
69162;DHT22;56269;51.738;21.652;2022-07-06T14:11:15;24.57;52.63
69162;DHT22;56269;51.738;21.652;2022-07-06T14:13:41;24.50;49.39
69162;DHT22;56269;51.738;21.652;2022-07-06T14:16:08;24.58;49.70
69162;DHT22;56269;51.738;21.652;2022-07-06T14:18:34;24.64;48.45
69162;DHT22;56269;51.738;21.652;2022-07-06T14:21:00;24.23;49.81
69162;DHT22;56269;51.738;21.652;2022-07-06T14:23:27;23.10;49.17
69162;DHT22;56269;51.738;21.652;2022-07-06T14:25:56;22.86;51.04
69162;DHT22;56269;51.738;21.652;2022-07-06T14:28:22;22.47;51.40
69162;DHT22;56269;51.738;21.652;2022-07-06T14:30:49;23.41;49.32
69162;DHT22;56269;51.738;21.652;2022-07-06T14:33:15;23.82;51.96
69162;DHT22;56269;51.738;21.652;2022-07-06T14:35:46;23.79;50.06
69162;DHT22;56269;51.738;21.652;2022-07-06T14:38:15;23.42;51.85
69162;DHT22;56269;51.738;21.652;2022-07-06T14:40:42;22.57;51.46
69162;DHT22;56269;51.738;21.652;2022-07-06T14:43:08;22.37;52.10
69162;DHT22;56269;51.738;21.652;2022-07-06T14:45:34;22.10;53.87
69162;DHT22;56269;51.738;21.652;2022-07-06T14:48:01;21.81;54.36
69162;DHT22;56269;51.738;21.652;2022-07-06T14:50:27;21.57;56.45
69162;DHT22;56269;51.738;21.652;2022-07-06T14:52:54;21.71;54.87
69162;DHT22;56269;51.738;21.652;2022-07-06T14:55:21;21.82;55.60
69162;DHT22;56269;51.738;21.652;2022-07-06T14:57:47;22.22;58.38
69162;DHT22;56269;51.738;21.652;2022-07-06T15:00:14;21.99;57.25
69162;DHT22;56269;51.738;21.652;2022-07-06T15:02:41;21.84;54.46
69162;DHT22;56269;51.738;21.652;2022-07-06T15:05:09;21.81;57.54
69162;DHT22;56269;51.738;21.652;2022-07-06T15:07:35;21.68;55.65
69162;DHT22;56269;51.738;21.652;2022-07-06T15:10:02;21.68;55.27
69162;DHT22;56269;51.738;21.652;2022-07-06T15:12:28;21.57;56.75
69162;DHT22;56269;51.738;21.652;2022-07-06T15:14:54;21.51;55.96
69162;DHT22;56269;51.738;21.652;2022-07-06T15:17:20;21.52;56.18
69162;DHT22;56269;51.738;21.652;2022-07-06T15:19:46;21.72;58.98
69162;DHT22;56269;51.738;21.652;2022-07-06T15:22:34;22.02;58.35
69162;DHT22;56269;51.738;21.652;2022-07-06T15:25:02;22.32;58.40